Time;durP1;ratioP1;P1;durP2;ratioP2;P2;SDS_P1;SDS_P2;PMS_P1;PMS_P2;Temp;Humidity;BMP_temperature;BMP_pressure;BME280_temperature;BME280_humidity;BME280_pressure;Samples;Min_cycle;Max_cycle;Signal;HPM_P1;HPM_P2
2022/03/06 05:00:15;;;;;;;21.50;11.40;;;-0.60;99.90;;;;;;6076825;23;20369;31
2022/03/06 05:02:42;;;;;;;19.80;10.90;;;-0.70;99.90;;;;;;4915218;29;20463;-75
2022/03/06 05:05:10;;;;;;;17.63;9.97;;;-0.70;99.90;;;;;;4917654;29;20498;-74
2022/03/06 05:07:37;;;;;;;19.70;11.63;;;-0.70;99.90;;;;;;4917378;29;20462;-74
2022/03/06 05:10:09;;;;;;;21.13;10.77;;;-0.70;99.90;;;;;;4916854;29;20545;-74
2022/03/06 05:12:36;;;;;;;19.30;9.93;;;-0.70;99.90;;;;;;4917522;29;20542;-74
2022/03/06 05:15:03;;;;;;;19.17;10.50;;;-0.70;99.90;;;;;;5002247;23;20501;-74
2022/03/06 05:17:32;;;;;;;22.30;10.97;;;-0.70;99.90;;;;;;5013744;28;20458;-74
2022/03/06 05:19:58;;;;;;;19.00;10.60;;;-0.60;99.90;;;;;;5013459;28;20455;-74
2022/03/06 05:22:27;;;;;;;20.13;11.47;;;-0.70;99.90;;;;;;5013616;28;20455;-75
2022/03/06 05:24:53;;;;;;;19.50;10.10;;;-0.70;99.90;;;;;;5013590;28;20585;-74
2022/03/06 05:27:20;;;;;;;18.27;10.27;;;-0.70;99.90;;;;;;5013005;28;20458;-74
2022/03/06 05:29:47;;;;;;;16.93;9.83;;;-0.70;99.90;;;;;;5013481;28;20449;-74
2022/03/06 05:32:14;;;;;;;19.13;10.13;;;-0.70;99.90;;;;;;5013397;28;20490;-74
2022/03/06 05:34:42;;;;;;;17.83;9.87;;;-0.70;99.90;;;;;;5012445;28;20565;-74
2022/03/06 05:37:09;;;;;;;18.50;10.43;;;-0.70;99.90;;;;;;5009756;28;20934;-74
2022/03/06 05:39:36;;;;;;;20.70;11.10;;;-0.80;99.90;;;;;;5008803;28;20442;-74
2022/03/06 05:42:03;;;;;;;20.47;10.90;;;-0.80;99.90;;;;;;5011861;28;20507;-75
2022/03/06 05:44:30;;;;;;;21.87;11.30;;;-0.80;99.90;;;;;;5012213;28;20974;-74
2022/03/06 05:46:57;;;;;;;19.50;10.97;;;-0.80;99.90;;;;;;5021613;28;20538;-74
2022/03/06 05:49:24;;;;;;;17.27;9.87;;;-0.80;99.90;;;;;;5012506;28;20578;-74
2022/03/06 05:51:52;;;;;;;19.90;11.10;;;-0.80;99.90;;;;;;5012195;28;20493;-75
2022/03/06 05:54:19;;;;;;;18.40;10.90;;;-0.80;99.90;;;;;;5013143;28;20477;-74
2022/03/06 05:56:46;;;;;;;19.87;10.33;;;-0.80;99.90;;;;;;5013127;28;20455;-75
2022/03/06 05:59:13;;;;;;;20.67;11.17;;;-0.80;99.90;;;;;;5012779;28;20455;-74
2022/03/06 06:01:39;;;;;;;20.53;10.43;;;-0.80;99.90;;;;;;5012762;28;20447;-74
2022/03/06 06:04:06;;;;;;;21.60;11.90;;;-0.80;99.90;;;;;;5012731;28;20479;-74
2022/03/06 06:06:33;;;;;;;19.13;10.50;;;-0.80;99.90;;;;;;5012759;28;20553;-72
2022/03/06 06:09:02;;;;;;;18.93;10.60;;;-0.80;99.90;;;;;;5012798;28;20526;-74
2022/03/06 06:11:28;;;;;;;22.70;11.93;;;-0.80;99.90;;;;;;5012734;28;20490;-75
2022/03/06 06:13:55;;;;;;;19.80;11.27;;;-0.80;99.90;;;;;;5011797;28;21057;-74
2022/03/06 06:16:22;;;;;;;21.10;11.23;;;-0.90;99.90;;;;;;5012600;28;20818;-74
2022/03/06 06:18:49;;;;;;;20.00;11.00;;;-0.80;99.90;;;;;;5012375;28;20451;-73
2022/03/06 06:21:18;;;;;;;21.53;11.70;;;-0.90;99.90;;;;;;5012549;28;20783;-73
2022/03/06 06:23:46;;;;;;;24.30;10.80;;;-0.90;99.90;;;;;;5012690;28;20482;-73
2022/03/06 06:26:14;;;;;;;17.13;10.43;;;-0.90;99.90;;;;;;5012606;28;20541;-74
2022/03/06 06:28:41;;;;;;;22.13;11.27;;;-0.90;99.90;;;;;;5012437;28;20625;-74
2022/03/06 06:31:09;;;;;;;23.43;11.70;;;-0.90;99.90;;;;;;5012270;28;20526;-73
2022/03/06 06:33:36;;;;;;;16.63;10.40;;;-0.90;99.90;;;;;;5012268;28;20455;-73
2022/03/06 06:36:04;;;;;;;22.43;11.40;;;-0.90;99.90;;;;;;5012516;28;20454;-74
2022/03/06 06:38:31;;;;;;;20.63;11.70;;;-0.90;99.90;;;;;;5012551;28;20450;-74
2022/03/06 06:40:58;;;;;;;22.40;11.30;;;-0.90;99.90;;;;;;5012176;28;20875;-74
2022/03/06 06:43:29;;;;;;;22.83;11.93;;;-0.80;99.90;;;;;;5012433;28;20459;-74
2022/03/06 06:45:56;;;;;;;20.67;11.30;;;-0.80;99.90;;;;;;5012658;28;20461;-74
2022/03/06 06:48:23;;;;;;;20.33;11.33;;;-0.80;99.90;;;;;;5012341;28;20451;-74
2022/03/06 06:50:50;;;;;;;18.40;11.80;;;-0.80;99.90;;;;;;5012063;28;20461;-73
2022/03/06 06:53:16;;;;;;;25.10;13.40;;;-0.80;99.90;;;;;;5012382;28;20455;-71
2022/03/06 06:55:43;;;;;;;19.17;11.03;;;-0.80;99.90;;;;;;5012144;28;20558;-69
2022/03/06 06:58:10;;;;;;;19.90;12.00;;;-0.80;99.90;;;;;;5012078;28;20788;-72
2022/03/06 07:00:38;;;;;;;21.57;11.43;;;-0.80;99.90;;;;;;5011767;28;20530;-71
2022/03/06 07:03:05;;;;;;;21.57;10.97;;;-0.70;99.90;;;;;;5012382;28;20542;-72
2022/03/06 07:05:32;;;;;;;20.00;11.23;;;-0.70;99.90;;;;;;5012224;28;20509;-72
2022/03/06 07:07:59;;;;;;;23.37;11.00;;;-0.70;99.90;;;;;;5012216;28;20538;-72
2022/03/06 07:10:26;;;;;;;23.80;11.83;;;-0.60;99.90;;;;;;5011818;28;20461;-72
2022/03/06 07:12:54;;;;;;;21.00;11.50;;;-0.60;99.90;;;;;;5011908;28;20498;-71
2022/03/06 07:15:21;;;;;;;21.03;12.10;;;-0.50;99.90;;;;;;5011831;28;20490;-72
2022/03/06 07:17:50;;;;;;;25.77;12.37;;;-0.50;99.90;;;;;;5012258;28;20450;-73
2022/03/06 07:20:16;;;;;;;18.13;11.27;;;-0.50;99.90;;;;;;5011785;28;20459;-73
2022/03/06 07:22:43;;;;;;;23.03;11.73;;;-0.50;99.90;;;;;;5011894;28;20893;-72
2022/03/06 07:25:10;;;;;;;24.27;11.97;;;-0.50;99.90;;;;;;5012578;28;20459;-72
2022/03/06 07:27:37;;;;;;;23.40;12.40;;;-0.50;99.90;;;;;;5014106;28;20438;-72
2022/03/06 07:30:05;;;;;;;24.73;13.07;;;-0.40;99.90;;;;;;5015570;28;20454;-72
2022/03/06 07:32:32;;;;;;;26.67;12.40;;;-0.30;99.90;;;;;;5015513;28;20868;-72
2022/03/06 07:35:00;;;;;;;23.90;13.50;;;-0.30;99.90;;;;;;5015694;28;20474;-72
2022/03/06 07:37:27;;;;;;;23.73;12.60;;;-0.30;99.90;;;;;;5015636;28;20505;-72
2022/03/06 07:39:54;;;;;;;24.63;12.43;;;-0.20;99.90;;;;;;5015340;28;20454;-72
2022/03/06 07:42:21;;;;;;;23.13;12.27;;;-0.10;99.90;;;;;;5015511;28;21233;-72
2022/03/06 07:44:48;;;;;;;24.77;12.73;;;-0.10;99.90;;;;;;5015511;28;20471;-73
2022/03/06 07:47:14;;;;;;;24.00;13.57;;;0.00;99.90;;;;;;5015433;28;20541;-72
2022/03/06 07:49:41;;;;;;;22.80;14.40;;;0.00;99.90;;;;;;5014140;28;20442;-72
2022/03/06 07:52:10;;;;;;;24.07;14.23;;;0.50;99.90;;;;;;5015417;28;20605;-72
2022/03/06 07:54:36;;;;;;;23.23;12.73;;;0.50;99.90;;;;;;5014967;28;20470;-73
2022/03/06 07:57:04;;;;;;;21.00;13.40;;;0.60;99.90;;;;;;5015454;28;20481;-72
2022/03/06 07:59:31;;;;;;;21.63;11.83;;;0.60;99.90;;;;;;5015167;28;20543;-72
2022/03/06 08:01:57;;;;;;;17.87;11.20;;;0.70;99.90;;;;;;5015141;28;20446;-73
2022/03/06 08:04:24;;;;;;;17.77;10.83;;;0.80;99.90;;;;;;5015086;28;20554;-72
2022/03/06 08:06:52;;;;;;;22.60;10.83;;;1.00;99.90;;;;;;5015244;28;20450;-72
2022/03/06 08:09:20;;;;;;;18.70;11.30;;;1.20;99.90;;;;;;5014565;28;20481;-73
2022/03/06 08:11:47;;;;;;;18.70;11.10;;;1.40;99.90;;;;;;5014881;28;20498;-73
2022/03/06 08:14:14;;;;;;;19.13;11.87;;;1.60;99.90;;;;;;5015017;28;20493;-73
2022/03/06 08:16:41;;;;;;;23.50;11.50;;;1.80;99.90;;;;;;5015159;28;20460;-73
2022/03/06 08:19:08;;;;;;;20.60;11.50;;;2.00;99.90;;;;;;5014863;28;20455;-73
2022/03/06 08:21:35;;;;;;;17.37;10.53;;;2.10;99.90;;;;;;5014708;28;20541;-73
2022/03/06 08:24:07;;;;;;;17.50;10.40;;;2.30;99.90;;;;;;5014855;28;20557;-73
2022/03/06 08:26:37;;;;;;;22.00;12.57;;;2.50;99.90;;;;;;5014920;28;20450;-73
2022/03/06 08:29:04;;;;;;;18.73;11.60;;;2.70;99.90;;;;;;5014742;28;20462;-72
2022/03/06 08:31:34;;;;;;;17.00;11.07;;;2.80;99.90;;;;;;5014654;28;20455;-73
2022/03/06 08:34:01;;;;;;;17.17;11.13;;;2.90;99.90;;;;;;5014552;28;20467;-73
2022/03/06 08:36:31;;;;;;;16.97;10.67;;;3.10;99.90;;;;;;5013485;28;20901;-73
2022/03/06 08:38:58;;;;;;;18.73;11.73;;;3.10;99.90;;;;;;5014444;28;20478;-74
2022/03/06 08:41:28;;;;;;;17.67;10.80;;;3.20;99.90;;;;;;5014278;28;20546;-72
2022/03/06 08:43:56;;;;;;;15.10;10.30;;;3.40;99.90;;;;;;5014381;28;20518;-72
2022/03/06 08:46:24;;;;;;;17.83;10.43;;;3.50;99.90;;;;;;5014357;28;20478;-72
2022/03/06 08:48:51;;;;;;;15.43;10.30;;;3.60;99.90;;;;;;5014264;28;20458;-74
2022/03/06 08:51:18;;;;;;;16.83;10.83;;;3.70;99.90;;;;;;5015559;28;20479;-72
2022/03/06 08:53:45;;;;;;;20.10;10.50;;;3.80;99.90;;;;;;5014430;28;20495;-72
2022/03/06 08:56:12;;;;;;;15.90;10.27;;;4.00;99.90;;;;;;5014196;28;20546;-72
2022/03/06 08:58:39;;;;;;;16.60;11.03;;;4.10;99.90;;;;;;5014150;28;20521;-72
2022/03/06 09:01:07;;;;;;;18.77;12.17;;;4.30;99.90;;;;;;5014009;28;20461;-74
2022/03/06 09:03:34;;;;;;;16.33;10.70;;;4.40;99.90;;;;;;5012955;28;20457;-73
2022/03/06 09:06:01;;;;;;;21.07;11.17;;;4.60;99.90;;;;;;5013101;28;20435;-73
2022/03/06 09:08:28;;;;;;;19.40;11.50;;;4.70;99.90;;;;;;5013105;28;20458;-73
2022/03/06 09:10:54;;;;;;;18.03;11.30;;;4.80;99.90;;;;;;5012722;28;20537;-77
2022/03/06 09:13:21;;;;;;;17.40;10.53;;;5.00;99.90;;;;;;5012949;28;20505;-74
2022/03/06 09:15:48;;;;;;;22.87;11.33;;;5.00;99.90;;;;;;5012941;28;20483;-74
2022/03/06 09:18:16;;;;;;;19.20;11.50;;;5.20;99.90;;;;;;5012818;28;20461;-74
2022/03/06 09:20:43;;;;;;;16.50;10.73;;;5.30;99.90;;;;;;5012972;28;20542;-73
2022/03/06 09:23:10;;;;;;;17.00;10.43;;;5.40;99.90;;;;;;5012794;28;20530;-74
2022/03/06 09:25:37;;;;;;;19.67;11.67;;;5.70;99.90;;;;;;5012645;28;20471;-75
2022/03/06 09:28:05;;;;;;;18.17;11.67;;;5.90;99.90;;;;;;5012746;28;20451;-75
2022/03/06 09:30:32;;;;;;;15.90;10.10;;;6.00;99.90;;;;;;5012208;28;20960;-75
2022/03/06 09:32:59;;;;;;;17.53;10.83;;;6.20;99.90;;;;;;5012694;28;20609;-75
2022/03/06 09:35:27;;;;;;;16.70;9.97;;;6.20;99.90;;;;;;5012633;28;20577;-75
2022/03/06 09:37:55;;;;;;;17.67;10.20;;;6.40;99.30;;;;;;5012463;28;20464;-75
2022/03/06 09:40:22;;;;;;;15.57;10.30;;;6.50;98.50;;;;;;5012313;28;20462;-75
2022/03/06 09:42:49;;;;;;;15.47;10.20;;;6.90;98.60;;;;;;5013184;28;20443;-75
2022/03/06 09:45:16;;;;;;;15.60;9.57;;;7.00;97.30;;;;;;5013278;28;20479;-75
2022/03/06 09:47:45;;;;;;;15.33;9.23;;;7.30;98.00;;;;;;5013301;28;20537;-75
2022/03/06 09:50:14;;;;;;;12.40;9.20;;;7.70;97.00;;;;;;5013011;28;20814;-75
2022/03/06 09:52:43;;;;;;;16.93;8.77;;;7.90;94.10;;;;;;5013403;28;20585;-75
2022/03/06 09:55:11;;;;;;;13.93;9.00;;;7.80;92.30;;;;;;5013093;28;20558;-75
2022/03/06 09:57:39;;;;;;;13.33;8.50;;;8.00;92.30;;;;;;5012991;28;20451;-74
2022/03/06 10:00:08;;;;;;;11.90;8.43;;;8.20;91.80;;;;;;5012873;28;20450;-75
2022/03/06 10:02:57;;;;;;;12.90;9.10;;;8.30;91.40;;;;;;5012995;28;20451;-74
2022/03/06 10:05:33;;;;;;;12.90;8.20;;;8.70;91.90;;;;;;5013200;28;20482;-75
2022/03/06 10:08:23;;;;;;;11.80;8.47;;;8.90;90.60;;;;;;5013243;28;20473;-75
2022/03/06 10:10:52;;;;;;;12.80;9.30;;;8.90;88.00;;;;;;5012955;28;20530;-76
2022/03/06 10:13:21;;;;;;;12.73;8.60;;;8.90;89.30;;;;;;5013095;28;20629;-74
2022/03/06 10:15:59;;;;;;;14.13;9.33;;;9.30;88.20;;;;;;5012738;28;20483;-74
2022/03/06 10:18:26;;;;;;;13.23;9.20;;;9.70;88.50;;;;;;5012914;28;20802;-74
2022/03/06 10:20:53;;;;;;;12.53;9.03;;;9.70;85.30;;;;;;5012786;28;20517;-75
2022/03/06 10:23:28;;;;;;;13.10;9.17;;;9.40;84.20;;;;;;5012979;28;20529;-74
2022/03/06 10:26:05;;;;;;;14.70;9.13;;;9.30;85.60;;;;;;5012745;28;20473;-74
2022/03/06 10:28:42;;;;;;;12.67;9.57;;;9.10;82.90;;;;;;5012472;28;20509;-74
2022/03/06 10:31:09;;;;;;;12.83;9.57;;;8.80;82.70;;;;;;5011288;28;20460;-75
2022/03/06 10:33:38;;;;;;;12.10;9.03;;;8.60;84.00;;;;;;5012166;28;20507;-74
2022/03/06 10:36:09;;;;;;;12.50;8.70;;;8.50;83.10;;;;;;5012174;28;20457;-74
2022/03/06 10:38:38;;;;;;;10.30;8.60;;;8.40;82.80;;;;;;5012164;28;20463;-74
2022/03/06 10:41:15;;;;;;;14.93;8.83;;;8.40;82.10;;;;;;5012428;28;20448;-74
2022/03/06 10:43:42;;;;;;;13.33;8.80;;;8.20;81.20;;;;;;5012468;28;20518;-75
2022/03/06 10:46:11;;;;;;;12.43;8.70;;;8.20;83.50;;;;;;5012391;28;20997;-74
2022/03/06 10:48:39;;;;;;;15.27;9.57;;;8.30;83.80;;;;;;5012287;28;20451;-75
2022/03/06 10:51:09;;;;;;;12.30;8.10;;;8.50;83.80;;;;;;5012152;28;20517;-74
2022/03/06 10:53:37;;;;;;;13.93;9.60;;;8.50;83.20;;;;;;5012050;28;20577;-74
2022/03/06 10:56:10;;;;;;;13.43;8.57;;;8.50;85.00;;;;;;5012235;28;20482;-75
2022/03/06 10:58:39;;;;;;;12.40;8.90;;;8.60;85.60;;;;;;5012382;28;20454;-75
2022/03/06 11:01:06;;;;;;;16.70;9.17;;;8.80;83.60;;;;;;5011370;28;20461;-74
2022/03/06 11:03:35;;;;;;;13.37;8.43;;;9.20;84.10;;;;;;5011735;28;20479;-75
2022/03/06 11:06:04;;;;;;;12.00;9.60;;;9.50;83.00;;;;;;5012025;28;20461;-75
2022/03/06 11:08:31;;;;;;;13.77;8.83;;;9.60;81.90;;;;;;5011774;28;20450;-75
2022/03/06 11:11:00;;;;;;;14.83;9.37;;;9.90;79.00;;;;;;5011983;28;20974;-76
2022/03/06 11:13:29;;;;;;;13.10;9.60;;;9.90;78.60;;;;;;5011994;28;20906;-75
2022/03/06 11:15:57;;;;;;;13.47;9.73;;;10.10;76.60;;;;;;4998705;23;20877;-74
2022/03/06 11:18:24;;;;;;;13.83;9.30;;;10.20;76.30;;;;;;4953658;28;20458;-73
2022/03/06 11:20:53;;;;;;;9.70;8.23;;;10.50;75.70;;;;;;4953281;28;20464;-74
2022/03/06 11:23:32;;;;;;;11.70;8.80;;;10.30;74.30;;;;;;4952131;28;20450;-74
2022/03/06 11:26:14;;;;;;;11.50;8.50;;;10.20;77.80;;;;;;4953598;28;20516;-74
2022/03/06 11:29:03;;;;;;;12.53;9.20;;;10.30;75.00;;;;;;4953068;29;20453;-75
2022/03/06 11:31:30;;;;;;;11.57;8.47;;;10.10;73.10;;;;;;4952880;29;20448;-74
2022/03/06 11:34:14;;;;;;;12.93;9.43;;;10.00;73.60;;;;;;4953435;28;20497;-74
2022/03/06 11:36:48;;;;;;;13.33;9.37;;;10.00;75.60;;;;;;4953511;29;20544;-74
2022/03/06 11:39:16;;;;;;;11.07;8.37;;;9.80;74.40;;;;;;4950822;29;20462;-74
2022/03/06 11:41:44;;;;;;;11.17;8.07;;;9.70;74.70;;;;;;4951168;28;20453;-74
2022/03/06 11:44:32;;;;;;;17.37;9.40;;;9.60;76.50;;;;;;4952804;28;20560;-74
2022/03/06 11:46:59;;;;;;;16.77;8.90;;;9.50;75.10;;;;;;4953149;28;20453;-74
2022/03/06 11:49:34;;;;;;;12.07;8.60;;;9.20;77.10;;;;;;4952359;28;20547;-73
2022/03/06 11:52:01;;;;;;;10.20;8.00;;;9.00;75.10;;;;;;4952589;28;20910;-73
2022/03/06 11:54:42;;;;;;;11.23;8.37;;;8.90;76.10;;;;;;4952889;28;20497;-73
2022/03/06 11:57:10;;;;;;;12.27;9.60;;;8.90;77.00;;;;;;4953089;28;20469;-74
2022/03/06 11:59:46;;;;;;;13.33;8.40;;;8.90;77.30;;;;;;4952245;28;20926;-73
2022/03/06 12:02:18;;;;;;;11.63;8.70;;;9.00;75.60;;;;;;4952572;28;20453;-74
2022/03/06 12:04:47;;;;;;;12.50;8.10;;;8.70;75.40;;;;;;4952581;28;20477;-73
2022/03/06 12:07:20;;;;;;;10.77;8.47;;;8.60;75.80;;;;;;4953061;28;20946;-73
2022/03/06 12:09:48;;;;;;;12.60;8.17;;;8.50;76.90;;;;;;4952393;28;20946;-73
2022/03/06 12:12:18;;;;;;;11.50;8.33;;;8.40;77.40;;;;;;4953640;28;20596;-73
2022/03/06 12:14:46;;;;;;;11.37;8.63;;;8.40;77.50;;;;;;4956215;28;20492;-73
2022/03/06 12:17:24;;;;;;;10.10;8.17;;;8.50;77.10;;;;;;4956080;28;20462;-74
2022/03/06 12:20:23;;;;;;;12.73;8.90;;;8.50;78.00;;;;;;4955911;28;20575;-74
2022/03/06 12:22:51;;;;;;;14.30;9.40;;;8.40;77.50;;;;;;4955877;28;21210;-74
2022/03/06 12:25:21;;;;;;;16.87;8.73;;;8.40;77.20;;;;;;4956438;28;20513;-73
2022/03/06 12:28:20;;;;;;;11.67;8.80;;;8.30;76.60;;;;;;4956566;28;20524;-74
2022/03/06 12:30:48;;;;;;;11.73;8.10;;;8.20;76.20;;;;;;4947335;28;20465;-74
2022/03/06 12:33:44;;;;;;;12.83;7.57;;;8.20;76.70;;;;;;4955883;28;20543;-73
2022/03/06 12:36:23;;;;;;;10.50;8.00;;;8.20;77.20;;;;;;4956076;28;20532;-74
2022/03/06 12:38:56;;;;;;;10.90;7.70;;;8.20;78.00;;;;;;4955229;28;20532;-74
2022/03/06 12:41:23;;;;;;;13.47;8.67;;;8.20;77.30;;;;;;4955990;28;20975;-73
2022/03/06 12:43:59;;;;;;;10.87;8.33;;;8.30;78.70;;;;;;4955919;28;20501;-73
2022/03/06 12:46:26;;;;;;;13.43;8.30;;;8.30;77.50;;;;;;4955843;28;20444;-74
2022/03/06 12:48:53;;;;;;;13.40;8.80;;;8.40;77.60;;;;;;4955425;28;20458;-74
2022/03/06 12:51:31;;;;;;;9.73;8.43;;;8.40;79.30;;;;;;4955819;28;20453;-74
2022/03/06 12:53:59;;;;;;;11.27;8.33;;;8.40;77.50;;;;;;4955420;28;20511;-74
2022/03/06 12:56:31;;;;;;;13.43;8.73;;;8.30;76.90;;;;;;4955693;28;20464;-73
2022/03/06 12:59:15;;;;;;;12.17;8.70;;;8.20;76.60;;;;;;4955423;28;20610;-74
2022/03/06 13:01:42;;;;;;;11.03;7.93;;;8.20;77.50;;;;;;4955193;28;20452;-74
2022/03/06 13:04:10;;;;;;;14.97;8.83;;;8.30;78.40;;;;;;4954996;28;20505;-74
2022/03/06 13:06:39;;;;;;;11.10;8.27;;;8.40;78.10;;;;;;4955634;28;20548;-74
2022/03/06 13:09:06;;;;;;;12.33;8.80;;;8.40;78.10;;;;;;4954820;28;20540;-74
2022/03/06 13:11:38;;;;;;;14.00;8.70;;;8.40;78.00;;;;;;4955271;28;20899;-74
2022/03/06 13:14:10;;;;;;;14.67;9.70;;;8.40;78.50;;;;;;4955148;28;20494;-74
2022/03/06 13:16:37;;;;;;;14.23;9.43;;;8.40;78.40;;;;;;4955456;28;20466;-74
2022/03/06 13:19:06;;;;;;;13.10;9.60;;;8.30;79.70;;;;;;4955466;28;20485;-74
2022/03/06 13:21:37;;;;;;;10.83;8.23;;;8.20;78.60;;;;;;4955227;28;20988;-74
2022/03/06 13:24:08;;;;;;;13.77;9.13;;;8.10;77.90;;;;;;4954965;28;21138;-74
2022/03/06 13:26:36;;;;;;;13.70;8.77;;;8.10;78.70;;;;;;4955486;28;20454;-74
2022/03/06 13:29:04;;;;;;;11.37;8.53;;;8.10;79.10;;;;;;4954958;28;20912;-74
2022/03/06 13:31:41;;;;;;;12.73;8.93;;;8.00;79.60;;;;;;4955332;28;20453;-74
2022/03/06 13:34:13;;;;;;;11.53;8.60;;;8.00;79.00;;;;;;4955007;28;20507;-73
2022/03/06 13:36:41;;;;;;;13.30;8.60;;;8.00;78.50;;;;;;4955049;28;20449;-74
2022/03/06 13:39:13;;;;;;;15.33;9.03;;;7.90;79.40;;;;;;4954653;28;20456;-74
2022/03/06 13:41:51;;;;;;;13.30;8.60;;;7.90;78.60;;;;;;4954933;28;20875;-74
2022/03/06 13:44:17;;;;;;;10.50;8.50;;;7.80;77.90;;;;;;4955179;28;20812;-74
2022/03/06 13:46:46;;;;;;;13.07;9.43;;;7.80;79.20;;;;;;4954464;28;20548;-73
2022/03/06 13:49:14;;;;;;;12.93;8.13;;;7.60;78.50;;;;;;4954401;28;20842;-74
2022/03/06 13:51:42;;;;;;;12.43;9.33;;;7.60;79.60;;;;;;4954730;28;20942;-74
2022/03/06 13:54:10;;;;;;;12.30;8.43;;;7.70;80.30;;;;;;4954715;28;20503;-73
2022/03/06 13:56:39;;;;;;;11.55;8.45;;;7.80;79.50;;;;;;4953684;28;20439;-73
2022/03/06 13:59:08;;;;;;;13.30;9.20;;;7.90;79.00;;;;;;4954404;28;20224;-73
2022/03/06 14:01:36;;;;;;;12.27;8.60;;;7.90;78.60;;;;;;4954618;28;20533;-73
2022/03/06 14:04:07;;;;;;;10.57;8.10;;;7.90;79.40;;;;;;4954692;28;20457;-73
2022/03/06 14:06:39;;;;;;;13.20;8.53;;;7.80;78.80;;;;;;4954860;28;20468;-73
2022/03/06 14:09:24;;;;;;;12.00;8.93;;;7.70;78.00;;;;;;4954293;28;20463;-73
2022/03/06 14:12:04;;;;;;;15.83;9.67;;;7.70;79.30;;;;;;4954777;28;20463;-73
2022/03/06 14:14:35;;;;;;;12.73;8.43;;;7.70;78.40;;;;;;4954159;28;20501;-73
2022/03/06 14:17:06;;;;;;;12.30;9.00;;;7.70;78.40;;;;;;4954547;28;20457;-73
2022/03/06 14:19:34;;;;;;;14.87;8.90;;;7.60;78.40;;;;;;4954281;28;20457;-73
2022/03/06 14:22:02;;;;;;;12.10;9.13;;;7.50;78.50;;;;;;4954173;28;20458;-73
2022/03/06 14:24:29;;;;;;;11.77;8.83;;;7.50;79.00;;;;;;4954243;28;20472;-73
2022/03/06 14:26:56;;;;;;;13.50;8.60;;;7.50;79.10;;;;;;4954136;28;20453;-73
2022/03/06 14:29:27;;;;;;;13.40;8.33;;;7.50;79.00;;;;;;4954042;28;20476;-73
2022/03/06 14:31:56;;;;;;;11.00;8.97;;;7.50;78.80;;;;;;4954281;28;20458;-73
2022/03/06 14:34:25;;;;;;;12.40;8.67;;;7.50;79.70;;;;;;4953472;28;20532;-73
2022/03/06 14:36:54;;;;;;;13.00;8.70;;;7.60;80.30;;;;;;4954000;28;20461;-73
2022/03/06 14:39:22;;;;;;;13.70;9.40;;;7.50;78.60;;;;;;4953868;28;20556;-73
2022/03/06 14:41:49;;;;;;;12.20;9.00;;;7.40;78.70;;;;;;4954176;28;20461;-73
2022/03/06 14:44:17;;;;;;;12.07;9.37;;;7.40;78.90;;;;;;4954074;28;20905;-73
2022/03/06 14:46:44;;;;;;;14.47;10.33;;;7.40;78.70;;;;;;4954093;28;20464;-73
2022/03/06 14:49:13;;;;;;;12.97;8.10;;;7.40;79.00;;;;;;4953520;28;20454;-73
2022/03/06 14:51:40;;;;;;;14.00;8.63;;;7.40;78.80;;;;;;4954259;28;20475;-73
2022/03/06 14:54:10;;;;;;;15.37;9.40;;;7.40;78.80;;;;;;4953955;28;20651;-73
2022/03/06 14:56:38;;;;;;;13.53;8.80;;;7.30;78.80;;;;;;4953574;28;20497;-73
2022/03/06 14:59:07;;;;;;;11.43;8.90;;;7.30;79.30;;;;;;4953590;28;20497;-73
2022/03/06 15:01:34;;;;;;;10.50;8.87;;;7.40;79.90;;;;;;4953865;28;20449;-73
2022/03/06 15:04:01;;;;;;;13.67;9.07;;;7.40;78.80;;;;;;4953420;28;20454;-73
2022/03/06 15:06:28;;;;;;;11.93;8.67;;;7.40;78.80;;;;;;4956298;28;20481;-73
2022/03/06 15:08:55;;;;;;;11.33;9.00;;;7.30;78.60;;;;;;4956449;28;20453;-73
2022/03/06 15:11:24;;;;;;;13.53;9.37;;;7.30;78.70;;;;;;4955092;28;20493;-73
2022/03/06 15:13:51;;;;;;;12.60;8.70;;;7.20;78.30;;;;;;4953653;28;20507;-73
2022/03/06 15:16:17;;;;;;;12.93;9.00;;;7.10;78.70;;;;;;4953490;28;20453;-73
2022/03/06 15:18:46;;;;;;;15.03;9.23;;;7.20;80.20;;;;;;4953567;28;20501;-73
2022/03/06 15:21:14;;;;;;;15.10;8.93;;;7.40;79.20;;;;;;4952271;28;20446;-74
2022/03/06 15:23:41;;;;;;;13.00;9.10;;;7.30;78.60;;;;;;4952865;28;20454;-77
2022/03/06 15:26:09;;;;;;;16.43;11.27;;;7.30;79.70;;;;;;4953552;28;20478;-75
2022/03/06 15:28:38;;;;;;;11.33;8.50;;;7.20;78.70;;;;;;4953403;28;20472;-74
2022/03/06 15:31:05;;;;;;;17.50;9.60;;;7.10;79.70;;;;;;4953191;28;20544;-74
2022/03/06 15:33:34;;;;;;;13.37;9.07;;;7.00;78.80;;;;;;4953281;28;20442;-75
2022/03/06 15:36:01;;;;;;;13.23;10.07;;;7.00;79.70;;;;;;4953487;28;20960;-75
2022/03/06 15:38:28;;;;;;;14.10;10.10;;;7.00;80.10;;;;;;4953445;28;20521;-74
2022/03/06 15:40:55;;;;;;;15.07;10.50;;;6.90;79.70;;;;;;4953422;28;20465;-75
2022/03/06 15:43:22;;;;;;;12.80;9.90;;;6.80;79.30;;;;;;4953355;28;20532;-75
2022/03/06 15:45:50;;;;;;;14.33;9.00;;;6.80;80.10;;;;;;4954179;28;20572;-75
2022/03/06 15:48:18;;;;;;;13.27;9.30;;;6.70;80.00;;;;;;4957729;28;20480;-75
2022/03/06 15:50:48;;;;;;;16.00;10.50;;;6.60;80.40;;;;;;4956891;28;20453;-76
2022/03/06 15:53:17;;;;;;;17.60;11.00;;;6.60;79.80;;;;;;4957148;28;20452;-75
2022/03/06 15:55:44;;;;;;;16.73;10.05;;;6.40;80.40;;;;;;4956481;28;20500;-71
2022/03/06 15:58:11;;;;;;;16.70;10.30;;;6.40;80.10;;;;;;4956803;28;20297;-75
2022/03/06 16:00:38;;;;;;;17.83;9.83;;;6.30;80.00;;;;;;4956967;28;20488;-74
2022/03/06 16:03:06;;;;;;;14.33;9.63;;;6.20;80.30;;;;;;4956699;28;20463;-74
2022/03/06 16:05:34;;;;;;;13.60;9.37;;;6.20;79.60;;;;;;4956692;28;20642;-74
2022/03/06 16:08:01;;;;;;;14.40;9.87;;;6.10;80.20;;;;;;4956595;28;20508;-74
2022/03/06 16:10:27;;;;;;;13.27;9.67;;;6.10;80.70;;;;;;4956269;28;20449;-74
2022/03/06 16:12:54;;;;;;;14.20;10.40;;;6.00;80.00;;;;;;4956871;28;20456;-75
2022/03/06 16:15:22;;;;;;;14.87;9.50;;;6.00;80.90;;;;;;4956282;28;21023;-75
2022/03/06 16:17:51;;;;;;;13.97;9.73;;;6.10;80.50;;;;;;4956913;28;20475;-75
2022/03/06 16:20:21;;;;;;;12.80;9.50;;;6.10;79.80;;;;;;4956306;28;20456;-75
2022/03/06 16:22:48;;;;;;;16.67;9.83;;;6.10;80.40;;;;;;4956981;29;20532;-75
2022/03/06 16:25:14;;;;;;;17.53;9.93;;;6.00;80.30;;;;;;4956728;28;20472;-74
2022/03/06 16:27:41;;;;;;;17.43;9.73;;;6.00;80.30;;;;;;4956617;28;20833;-74
2022/03/06 16:30:10;;;;;;;15.30;9.87;;;6.10;80.20;;;;;;4954986;28;20540;-75
2022/03/06 16:32:39;;;;;;;14.30;9.80;;;5.90;79.10;;;;;;4956039;28;20488;-75
2022/03/06 16:35:07;;;;;;;13.97;9.90;;;6.00;79.20;;;;;;4956007;28;20496;-74
2022/03/06 16:37:35;;;;;;;14.80;10.00;;;5.90;78.90;;;;;;4956055;28;20564;-75
2022/03/06 16:40:03;;;;;;;14.20;8.83;;;5.90;78.30;;;;;;4956113;28;20453;-74
2022/03/06 16:42:30;;;;;;;12.57;9.87;;;6.00;77.90;;;;;;4956036;28;20537;-75
2022/03/06 16:44:57;;;;;;;15.20;9.80;;;6.00;78.20;;;;;;4956239;28;20884;-75
2022/03/06 16:47:24;;;;;;;14.03;9.27;;;6.00;77.90;;;;;;4956235;28;20528;-75
2022/03/06 16:49:52;;;;;;;11.70;8.20;;;5.90;79.50;;;;;;4956089;28;20466;-75
2022/03/06 16:52:19;;;;;;;16.90;9.23;;;5.90;78.70;;;;;;4955946;28;20441;-74
2022/03/06 16:54:47;;;;;;;15.03;8.93;;;5.90;78.80;;;;;;4955746;28;21089;-75
2022/03/06 16:57:15;;;;;;;11.17;8.70;;;5.90;79.20;;;;;;4955974;28;20540;-75
2022/03/06 16:59:42;;;;;;;13.73;9.43;;;5.90;79.80;;;;;;4955438;28;20468;-75
2022/03/06 17:02:10;;;;;;;13.80;9.30;;;5.90;80.50;;;;;;4955813;28;20544;-75
2022/03/06 17:04:37;;;;;;;14.43;10.63;;;5.90;79.70;;;;;;4955423;28;20466;-75
2022/03/06 17:07:06;;;;;;;15.30;9.87;;;5.90;79.70;;;;;;4955725;28;20480;-75
2022/03/06 17:09:36;;;;;;;12.30;9.40;;;5.90;80.20;;;;;;4955776;28;20484;-75
2022/03/06 17:12:05;;;;;;;14.03;8.97;;;5.90;79.60;;;;;;4955736;29;20976;-75
2022/03/06 17:14:32;;;;;;;14.50;10.00;;;5.90;80.70;;;;;;4980323;23;20488;-72
2022/03/06 17:17:00;;;;;;;15.00;8.80;;;5.90;79.90;;;;;;4974803;28;20468;-71
2022/03/06 17:19:27;;;;;;;14.00;10.40;;;5.80;80.00;;;;;;4974448;28;20445;-72
2022/03/06 17:21:54;;;;;;;13.50;9.23;;;5.80;80.70;;;;;;4974464;28;20484;-72
2022/03/06 17:24:21;;;;;;;14.07;10.07;;;5.70;80.50;;;;;;4972964;28;20501;-71
2022/03/06 17:26:49;;;;;;;12.20;9.50;;;5.60;80.90;;;;;;4955251;28;20992;-72
2022/03/06 17:29:17;;;;;;;14.97;10.10;;;5.60;81.40;;;;;;4954999;28;20484;-73
2022/03/06 17:31:45;;;;;;;12.10;9.23;;;5.60;81.60;;;;;;4955017;28;20446;-72
2022/03/06 17:34:12;;;;;;;13.17;9.60;;;5.60;82.00;;;;;;4955524;29;20586;-73
2022/03/06 17:36:39;;;;;;;17.10;10.63;;;5.60;82.50;;;;;;4955223;29;20559;-72
2022/03/06 17:39:06;;;;;;;12.87;10.53;;;5.60;82.40;;;;;;4954967;28;20533;-72
2022/03/06 17:41:33;;;;;;;14.20;9.83;;;5.50;81.60;;;;;;4955286;28;20961;-72
2022/03/06 17:44:01;;;;;;;14.87;10.70;;;5.50;82.00;;;;;;4954924;29;20900;-75
2022/03/06 17:46:30;;;;;;;13.27;9.95;;;5.40;81.60;;;;;;4955026;28;20845;-74
2022/03/06 17:48:58;;;;;;;13.63;9.07;;;5.50;81.80;;;;;;4955103;29;20210;-74